Airfield :







YOU CAN JOIN US ON...

 
LOGIN :

Register | Disclaimer

   EN    FR    IT 

 









Legend :    VFR   Marginal VFR   IFR   Intensive IFR   Very Intensive IFR
Visi :
Ceiling :
>= 8 km
>= 3000ft
5 to 8 km
1000 to 3000 ft
1500m to 5 km
500 to 1000 ft
800 to 1500m
200 to 500 ft
< 800m
< 200 ft
Symbols :   Thunderstorms  Fog  Heavy snow  Heavy precipitations  Wind > 20 kt






- Airport Elevation : 90 ft
- IATA code : YHU


CYHU - Montréal Saint-Hubert

CURRENT METAR :
  • 260100Z AUTO 12002KT 9SM OVC031 21/13 A3005 RMK SLP179 DENSITY ALT 700FT

EXPIRED METARs :
  • 260000Z AUTO 18004KT 9SM OVC037 22/13 A3004 RMK SLP175 DENSITY ALT 700FT
  • 252300Z AUTO 19003KT 9SM OVC035 22/14 A3005 RMK SLP178 DENSITY ALT 800FT

TAF TAF CYHU
Valid from the 26 at 00:00 until the 27 at 00:00 UTC


252338Z 2600/2624 VRB03KT P6SM OVC030
FM260400 VRB03KT P6SM FEW250
BECMG 2614/2616 21010KT
FM261800 24012KT P6SM FEW050 RMK FCST BASED ON AUTO OBS. NXT FCST BY 260600Z
CZUL FIR / North America



MET'MAP, your aeronautical weather chart ! - Copyright ORBIFLY December 2007 - Disclaimer

ORBIFLY MET'MAP TEAM :

Programming & Development : Alexandra Zaïnal
Concept & original design : Baudouin d'Aumeries
Assistance for programming : Marc-Olivier Méhu
Technical & hardware support : Manuel Goepfert

Contact : metmap@orbifly.com




SOURCES & CREDITS :

   NOAA